Time;durP1;ratioP1;P1;durP2;ratioP2;P2;SDS_P1;SDS_P2;PMS_P1;PMS_P2;Temp;Humidity;BMP_temperature;BMP_pressure;BME280_temperature;BME280_humidity;BME280_pressure;Samples;Min_cycle;Max_cycle;Signal;HPM_P1;HPM_P2
2023/09/04 00:01:19;;;;;;;15.17;5.60;;;;;;;;;;5119533;28;20622;-74
2023/09/04 00:03:47;;;;;;;15.30;5.87;;;;;;;;;;5119137;28;20244;-75
2023/09/04 00:06:15;;;;;;;17.23;5.87;;;;;;;;;;5119038;28;20631;-75
2023/09/04 00:08:44;;;;;;;11.00;5.40;;;;;;;;;;5119161;27;20208;-75
2023/09/04 00:11:12;;;;;;;15.13;5.53;;;;;;;;;;5119073;28;20232;-75
2023/09/04 00:13:41;;;;;;;13.23;4.47;;;;;;;;;;5119248;28;20223;-74
2023/09/04 00:16:09;;;;;;;11.33;4.13;;;;;;;;;;5119105;28;20545;-73
2023/09/04 00:18:37;;;;;;;11.53;4.50;;;;;;;;;;5119226;28;20209;-74
2023/09/04 00:21:05;;;;;;;8.70;4.93;;;;;;;;;;5118878;28;20225;-73
2023/09/04 00:23:33;;;;;;;11.90;5.10;;;;;;;;;;5118549;28;20214;-74
2023/09/04 00:26:02;;;;;;;9.00;4.97;;;;;;;;;;5119236;28;20218;-75
2023/09/04 00:28:30;;;;;;;13.00;4.87;;;;;;;;;;5118707;28;20684;-73
2023/09/04 00:30:58;;;;;;;10.00;4.60;;;;;;;;;;5119008;28;20699;-74
2023/09/04 00:33:26;;;;;;;12.70;5.23;;;;;;;;;;5118776;28;20295;-74
2023/09/04 00:35:54;;;;;;;11.67;5.07;;;;;;;;;;5118545;28;20200;-75
2023/09/04 00:38:22;;;;;;;11.40;4.77;;;;;;;;;;5118244;28;20752;-74
2023/09/04 00:40:51;;;;;;;11.07;4.37;;;;;;;;;;5118790;28;20220;-74
2023/09/04 00:43:20;;;;;;;7.33;4.77;;;;;;;;;;5118766;28;20264;-74
2023/09/04 00:45:48;;;;;;;10.93;5.00;;;;;;;;;;5118612;28;20661;-74
2023/09/04 00:48:16;;;;;;;6.97;4.50;;;;;;;;;;5118403;28;20216;-74
2023/09/04 00:50:44;;;;;;;7.60;4.43;;;;;;;;;;5118295;28;20250;-74
2023/09/04 00:53:13;;;;;;;16.40;5.03;;;;;;;;;;5118456;28;20213;-75
2023/09/04 00:55:41;;;;;;;11.87;4.43;;;;;;;;;;5118566;28;20230;-74
2023/09/04 00:58:09;;;;;;;9.50;5.00;;;;;;;;;;5118437;28;20211;-74
2023/09/04 01:00:38;;;;;;;13.80;4.93;;;;;;;;;;5117972;28;20226;-74
2023/09/04 01:03:06;;;;;;;11.30;4.60;;;;;;;;;;5118239;28;20261;-74
2023/09/04 01:05:34;;;;;;;7.67;4.13;;;;;;;;;;5118405;28;20271;-74
2023/09/04 01:08:03;;;;;;;10.37;4.87;;;;;;;;;;5118117;28;20215;-75
2023/09/04 01:10:35;;;;;;;8.87;4.60;;;;;;;;;;5118366;28;20235;-75
2023/09/04 01:13:06;;;;;;;10.50;4.43;;;;;;;;;;5118275;28;20209;-74
2023/09/04 01:15:34;;;;;;;9.67;4.67;;;;;;;;;;5118065;28;20593;-75
2023/09/04 01:18:04;;;;;;;7.73;4.10;;;;;;;;;;5118121;28;20664;-73
2023/09/04 01:20:33;;;;;;;7.87;4.57;;;;;;;;;;5118272;28;20257;-75
2023/09/04 01:23:01;;;;;;;10.27;4.87;;;;;;;;;;5117722;28;20208;-74
2023/09/04 01:25:35;;;;;;;13.27;4.80;;;;;;;;;;5118017;28;20212;-74
2023/09/04 01:28:05;;;;;;;9.17;4.17;;;;;;;;;;5118340;28;20259;-75
2023/09/04 01:30:38;;;;;;;12.83;5.10;;;;;;;;;;5118412;28;20236;-75
2023/09/04 01:33:08;;;;;;;8.60;4.37;;;;;;;;;;5117775;28;20543;-74
2023/09/04 01:35:38;;;;;;;9.83;3.97;;;;;;;;;;5118173;28;20223;-74
2023/09/04 01:38:07;;;;;;;10.87;4.63;;;;;;;;;;5118025;28;20208;-75
2023/09/04 01:40:35;;;;;;;12.10;5.07;;;;;;;;;;5118092;28;20330;-74
2023/09/04 01:43:03;;;;;;;9.83;4.83;;;;;;;;;;5117841;28;20222;-74
2023/09/04 01:45:31;;;;;;;10.07;4.63;;;;;;;;;;5118179;28;20215;-75
2023/09/04 01:47:59;;;;;;;7.73;4.10;;;;;;;;;;5118060;28;20212;-73
2023/09/04 01:50:27;;;;;;;9.00;4.23;;;;;;;;;;5118030;28;20231;-74
2023/09/04 01:52:56;;;;;;;5.47;3.47;;;;;;;;;;5117349;28;20221;-74
2023/09/04 01:55:24;;;;;;;9.10;4.70;;;;;;;;;;5117992;28;20248;-74
2023/09/04 01:57:52;;;;;;;9.60;4.57;;;;;;;;;;5117636;28;20201;-75
2023/09/04 02:00:20;;;;;;;7.33;3.87;;;;;;;;;;5117841;28;20220;-74
2023/09/04 02:02:49;;;;;;;5.13;3.77;;;;;;;;;;5117629;28;20234;-74
2023/09/04 02:05:18;;;;;;;6.73;3.63;;;;;;;;;;5117838;28;20251;-74
2023/09/04 02:07:45;;;;;;;7.00;3.47;;;;;;;;;;5117697;28;20205;-75
2023/09/04 02:10:15;;;;;;;10.13;3.80;;;;;;;;;;5117661;28;20228;-75
2023/09/04 02:12:43;;;;;;;8.43;3.83;;;;;;;;;;5118511;28;20211;-75
2023/09/04 02:15:11;;;;;;;9.33;3.50;;;;;;;;;;5121587;28;20233;-75
2023/09/04 02:17:39;;;;;;;9.70;3.97;;;;;;;;;;5121489;28;20213;-75
2023/09/04 02:20:08;;;;;;;12.07;5.37;;;;;;;;;;5121147;28;20795;-75
2023/09/04 02:22:36;;;;;;;8.57;3.60;;;;;;;;;;5121330;28;20207;-75
2023/09/04 02:25:05;;;;;;;8.23;3.70;;;;;;;;;;5121041;28;20210;-75
2023/09/04 02:27:36;;;;;;;6.80;3.70;;;;;;;;;;5121505;28;20202;-75
2023/09/04 02:30:07;;;;;;;3.90;2.80;;;;;;;;;;5120994;27;20750;-74
2023/09/04 02:32:35;;;;;;;4.93;2.77;;;;;;;;;;5121548;28;20218;-74
2023/09/04 02:35:03;;;;;;;3.47;2.97;;;;;;;;;;5120976;28;20276;-74
2023/09/04 02:37:31;;;;;;;4.00;2.87;;;;;;;;;;5120963;28;20208;-74
2023/09/04 02:39:59;;;;;;;4.70;2.50;;;;;;;;;;5120957;28;20222;-74
2023/09/04 02:42:28;;;;;;;4.63;2.57;;;;;;;;;;5121201;28;20207;-74
2023/09/04 02:44:58;;;;;;;2.47;2.27;;;;;;;;;;5121087;28;20204;-74
2023/09/04 02:47:26;;;;;;;2.97;1.83;;;;;;;;;;5120752;28;20206;-73
2023/09/04 02:49:55;;;;;;;3.73;2.40;;;;;;;;;;5120960;28;20234;-75
2023/09/04 02:52:23;;;;;;;3.97;2.80;;;;;;;;;;5120590;28;20685;-75
2023/09/04 02:54:51;;;;;;;3.63;2.57;;;;;;;;;;5120475;28;20264;-74
2023/09/04 02:57:19;;;;;;;7.03;3.03;;;;;;;;;;5120583;28;20221;-74
2023/09/04 02:59:47;;;;;;;6.60;2.40;;;;;;;;;;5120765;28;20206;-75
2023/09/04 03:02:17;;;;;;;4.43;3.13;;;;;;;;;;5120339;27;20240;-75
2023/09/04 03:04:45;;;;;;;3.93;2.57;;;;;;;;;;5120733;28;20232;-75
2023/09/04 03:07:13;;;;;;;4.67;2.70;;;;;;;;;;5120115;28;20544;-75
2023/09/04 03:09:41;;;;;;;4.80;2.70;;;;;;;;;;5120194;28;20250;-75
2023/09/04 03:12:09;;;;;;;6.07;3.00;;;;;;;;;;5120217;28;20205;-75
2023/09/04 03:14:39;;;;;;;7.87;3.00;;;;;;;;;;5120871;28;20204;-75
2023/09/04 03:17:09;;;;;;;4.93;3.00;;;;;;;;;;5120139;28;20596;-74
2023/09/04 03:19:38;;;;;;;3.63;2.40;;;;;;;;;;5120381;28;20201;-75
2023/09/04 03:22:07;;;;;;;1.90;1.63;;;;;;;;;;5119969;28;20794;-75
2023/09/04 03:24:35;;;;;;;2.97;2.13;;;;;;;;;;5119626;28;20665;-75
2023/09/04 03:27:03;;;;;;;3.87;2.03;;;;;;;;;;5120113;28;20210;-75
2023/09/04 03:29:31;;;;;;;5.03;2.70;;;;;;;;;;5119232;28;20680;-75
2023/09/04 03:32:00;;;;;;;3.20;2.20;;;;;;;;;;5117259;28;20256;-75
2023/09/04 03:34:28;;;;;;;2.37;2.07;;;;;;;;;;5119610;28;20209;-75
2023/09/04 03:36:58;;;;;;;2.30;2.10;;;;;;;;;;5117804;28;20250;-75
2023/09/04 03:39:26;;;;;;;2.40;2.00;;;;;;;;;;5119286;28;20202;-75
2023/09/04 03:41:54;;;;;;;4.37;2.03;;;;;;;;;;5119402;28;20220;-74
2023/09/04 03:44:22;;;;;;;1.97;1.77;;;;;;;;;;5119448;28;20204;-75
2023/09/04 03:46:50;;;;;;;5.17;2.03;;;;;;;;;;5119365;28;20632;-75
2023/09/04 03:49:18;;;;;;;4.17;2.37;;;;;;;;;;5119393;28;20246;-75
2023/09/04 03:51:50;;;;;;;3.80;2.00;;;;;;;;;;5119274;28;20227;-76
2023/09/04 03:54:19;;;;;;;4.90;2.27;;;;;;;;;;5115352;28;20211;-75
2023/09/04 03:56:47;;;;;;;3.37;2.33;;;;;;;;;;5118222;28;20220;-76
2023/09/04 03:59:16;;;;;;;4.10;2.33;;;;;;;;;;5117702;27;20218;-75
2023/09/04 04:01:44;;;;;;;6.00;2.43;;;;;;;;;;5118399;28;20632;-76
2023/09/04 04:04:12;;;;;;;4.47;2.40;;;;;;;;;;5118561;28;20606;-76
2023/09/04 04:06:41;;;;;;;9.37;2.20;;;;;;;;;;5118723;27;20198;-76
2023/09/04 04:09:11;;;;;;;3.93;1.97;;;;;;;;;;5118574;28;20667;-75
2023/09/04 04:11:40;;;;;;;3.90;2.30;;;;;;;;;;5110928;28;20710;-75
2023/09/04 04:14:09;;;;;;;3.13;2.30;;;;;;;;;;5118254;28;20203;-74
2023/09/04 04:16:37;;;;;;;3.40;2.47;;;;;;;;;;5118864;28;20254;-75
2023/09/04 04:19:05;;;;;;;4.17;2.33;;;;;;;;;;5114787;28;20202;-75
2023/09/04 04:21:33;;;;;;;4.00;2.30;;;;;;;;;;5116327;28;20275;-76
2023/09/04 04:24:02;;;;;;;4.43;2.40;;;;;;;;;;5115961;28;20204;-72
2023/09/04 04:26:30;;;;;;;3.73;2.37;;;;;;;;;;5120329;27;20204;-74
2023/09/04 04:29:00;;;;;;;3.33;2.30;;;;;;;;;;5127014;27;20207;-73
2023/09/04 04:31:28;;;;;;;2.50;2.30;;;;;;;;;;5115338;28;20232;-74
2023/09/04 04:33:56;;;;;;;3.67;2.47;;;;;;;;;;5112001;28;20274;-75
2023/09/04 04:36:24;;;;;;;5.43;2.50;;;;;;;;;;5117858;28;20223;-73
2023/09/04 04:38:52;;;;;;;3.67;2.57;;;;;;;;;;5118735;28;20215;-79
2023/09/04 04:41:20;;;;;;;4.10;2.40;;;;;;;;;;5118814;28;20272;-78
2023/09/04 04:43:48;;;;;;;3.20;2.40;;;;;;;;;;5118534;28;20222;-78
2023/09/04 04:46:18;;;;;;;3.47;2.20;;;;;;;;;;5118981;28;20216;-78
2023/09/04 04:48:46;;;;;;;2.77;2.30;;;;;;;;;;5118304;28;20235;-79
2023/09/04 04:51:14;;;;;;;2.43;2.23;;;;;;;;;;5116424;28;20227;-78
2023/09/04 04:53:42;;;;;;;5.27;2.83;;;;;;;;;;5116798;28;20200;-79
2023/09/04 04:56:10;;;;;;;7.87;3.57;;;;;;;;;;5116895;28;20247;-78
2023/09/04 04:58:39;;;;;;;5.63;3.50;;;;;;;;;;5116569;28;20212;-79
2023/09/04 05:01:07;;;;;;;5.00;2.77;;;;;;;;;;5116418;28;20227;-77
2023/09/04 05:03:37;;;;;;;6.40;3.33;;;;;;;;;;5116166;28;20302;-77
2023/09/04 05:06:06;;;;;;;8.43;4.80;;;;;;;;;;5118384;28;20212;-76
2023/09/04 05:08:34;;;;;;;7.27;4.27;;;;;;;;;;5110586;28;20307;-76
2023/09/04 05:11:04;;;;;;;6.93;4.07;;;;;;;;;;5108626;28;20704;-78
2023/09/04 05:13:32;;;;;;;8.23;5.07;;;;;;;;;;5116453;28;20212;-77
2023/09/04 05:16:03;;;;;;;7.30;4.67;;;;;;;;;;5110041;28;20211;-78
2023/09/04 05:18:32;;;;;;;12.57;5.90;;;;;;;;;;5118129;28;20212;-76
2023/09/04 05:21:04;;;;;;;8.93;5.40;;;;;;;;;;5115849;28;20220;-76
2023/09/04 05:23:33;;;;;;;9.60;5.63;;;;;;;;;;5118120;28;20582;-78
2023/09/04 05:26:01;;;;;;;12.43;6.17;;;;;;;;;;5109737;28;20204;-78
2023/09/04 05:28:29;;;;;;;7.90;5.70;;;;;;;;;;5118482;28;20212;-80
2023/09/04 05:31:02;;;;;;;7.97;5.37;;;;;;;;;;5118088;28;20238;-80
2023/09/04 05:33:30;;;;;;;8.67;5.60;;;;;;;;;;5118354;28;20236;-80
2023/09/04 05:35:58;;;;;;;9.87;5.77;;;;;;;;;;5117583;28;20212;-79
2023/09/04 05:38:27;;;;;;;11.30;6.03;;;;;;;;;;5119840;28;20295;-79
2023/09/04 05:40:56;;;;;;;11.97;5.57;;;;;;;;;;5118019;28;20242;-78
2023/09/04 05:43:24;;;;;;;9.00;5.63;;;;;;;;;;5115907;28;20216;-79
2023/09/04 05:45:52;;;;;;;9.23;5.67;;;;;;;;;;5117879;28;20205;-80
2023/09/04 05:48:20;;;;;;;11.73;5.40;;;;;;;;;;5122208;28;20197;-79
2023/09/04 05:50:49;;;;;;;7.30;4.60;;;;;;;;;;5122319;28;20252;-80
2023/09/04 05:53:18;;;;;;;10.13;4.70;;;;;;;;;;5121690;28;20209;-80
2023/09/04 05:58:46;;;;;;;5.77;4.27;;;;;;;;;;5135489;27;20617;-75
2023/09/04 06:01:15;;;;;;;6.40;3.80;;;;;;;;;;5107375;28;20229;-76
2023/09/04 06:03:44;;;;;;;7.67;4.10;;;;;;;;;;5106688;28;20202;-74
2023/09/04 06:06:13;;;;;;;6.37;4.57;;;;;;;;;;5115178;28;20212;-75
2023/09/04 06:08:41;;;;;;;11.97;5.10;;;;;;;;;;5115485;28;20209;-75
2023/09/04 06:11:09;;;;;;;6.37;4.00;;;;;;;;;;5115116;28;20238;-76
2023/09/04 06:13:37;;;;;;;7.33;4.47;;;;;;;;;;5115524;28;20210;-76
2023/09/04 06:16:07;;;;;;;11.80;5.23;;;;;;;;;;5117514;28;20239;-76
2023/09/04 06:18:36;;;;;;;8.57;4.43;;;;;;;;;;5115482;28;20222;-74
2023/09/04 06:21:04;;;;;;;12.43;5.73;;;;;;;;;;5114559;28;20249;-76
2023/09/04 06:23:33;;;;;;;6.73;5.00;;;;;;;;;;5115326;28;20752;-75
2023/09/04 06:26:01;;;;;;;10.87;5.10;;;;;;;;;;5115242;28;20213;-76
2023/09/04 06:28:29;;;;;;;8.83;4.27;;;;;;;;;;5115246;28;20205;-75
2023/09/04 06:30:58;;;;;;;6.97;4.37;;;;;;;;;;5114850;28;20730;-76
2023/09/04 06:33:29;;;;;;;3.80;3.47;;;;;;;;;;5121511;28;20206;-76
2023/09/04 06:35:58;;;;;;;3.77;3.47;;;;;;;;;;5116410;27;20205;-74
2023/09/04 06:38:28;;;;;;;6.23;3.63;;;;;;;;;;5114816;28;20715;-76
2023/09/04 06:40:58;;;;;;;5.67;4.07;;;;;;;;;;5115059;28;20225;-76
2023/09/04 06:43:26;;;;;;;8.13;4.33;;;;;;;;;;5114944;28;20555;-77
2023/09/04 06:45:54;;;;;;;4.50;3.67;;;;;;;;;;5114721;28;20263;-77
2023/09/04 06:48:23;;;;;;;9.13;4.07;;;;;;;;;;5114828;28;20200;-76
2023/09/04 06:50:53;;;;;;;6.10;3.60;;;;;;;;;;5117121;28;20232;-76
2023/09/04 06:53:23;;;;;;;6.20;3.13;;;;;;;;;;5114778;28;20207;-75
2023/09/04 06:55:52;;;;;;;6.13;3.23;;;;;;;;;;5115308;28;20214;-76
2023/09/04 06:58:20;;;;;;;6.77;3.43;;;;;;;;;;5114307;28;20238;-75
2023/09/04 07:00:53;;;;;;;6.47;3.60;;;;;;;;;;5114753;28;20312;-76
2023/09/04 07:03:24;;;;;;;3.13;2.83;;;;;;;;;;5106417;28;20252;-75
2023/09/04 07:05:54;;;;;;;5.03;3.07;;;;;;;;;;5114243;28;20645;-76
2023/09/04 07:08:22;;;;;;;7.77;3.30;;;;;;;;;;5119343;28;20565;-75
2023/09/04 07:10:50;;;;;;;5.53;3.27;;;;;;;;;;5100792;28;20233;-76
2023/09/04 07:13:21;;;;;;;8.43;3.53;;;;;;;;;;5100729;28;20263;-75
2023/09/04 07:15:50;;;;;;;4.30;3.23;;;;;;;;;;5100416;28;20650;-76
2023/09/04 07:18:18;;;;;;;6.23;3.57;;;;;;;;;;5100713;28;20321;-75
2023/09/04 07:20:46;;;;;;;7.60;3.50;;;;;;;;;;5100572;28;20224;-75
2023/09/04 07:23:15;;;;;;;4.17;3.13;;;;;;;;;;5100461;28;20219;-75
2023/09/04 07:25:49;;;;;;;7.50;3.47;;;;;;;;;;5102914;28;20212;-74
2023/09/04 07:28:18;;;;;;;4.47;3.50;;;;;;;;;;5100566;28;20615;-75
2023/09/04 07:30:47;;;;;;;4.97;3.53;;;;;;;;;;5100326;28;20226;-75
2023/09/04 07:33:15;;;;;;;4.30;3.87;;;;;;;;;;5100271;28;20230;-75
2023/09/04 07:35:44;;;;;;;8.37;3.37;;;;;;;;;;5100223;28;20210;-74
2023/09/04 07:38:12;;;;;;;4.97;3.10;;;;;;;;;;5100072;28;20271;-74
2023/09/04 07:40:41;;;;;;;3.67;3.37;;;;;;;;;;5100161;28;20217;-75
2023/09/04 07:43:09;;;;;;;4.73;3.40;;;;;;;;;;5090477;28;20676;-75
2023/09/04 07:45:38;;;;;;;4.60;2.83;;;;;;;;;;5100087;28;20201;-74
2023/09/04 07:48:06;;;;;;;5.17;2.83;;;;;;;;;;5099794;28;20239;-75
2023/09/04 07:50:35;;;;;;;7.47;3.87;;;;;;;;;;5099788;28;20663;-76
2023/09/04 07:53:03;;;;;;;3.83;2.97;;;;;;;;;;5099601;28;20210;-75
2023/09/04 07:55:31;;;;;;;4.27;3.73;;;;;;;;;;5100201;28;20209;-76
2023/09/04 07:58:00;;;;;;;4.17;3.30;;;;;;;;;;5101925;28;20240;-73
2023/09/04 08:00:28;;;;;;;4.70;3.40;;;;;;;;;;5100777;28;20313;-75
2023/09/04 08:02:56;;;;;;;4.67;3.00;;;;;;;;;;5091581;28;20206;-75
2023/09/04 08:05:25;;;;;;;4.47;3.20;;;;;;;;;;5098992;28;20208;-75
2023/09/04 08:07:53;;;;;;;5.73;3.33;;;;;;;;;;5099315;28;20197;-76
2023/09/04 08:10:21;;;;;;;5.60;2.87;;;;;;;;;;5099552;28;20224;-76
2023/09/04 08:12:49;;;;;;;4.90;2.73;;;;;;;;;;5099413;28;20661;-75
2023/09/04 08:15:19;;;;;;;4.93;3.00;;;;;;;;;;5104183;28;20571;-74
2023/09/04 08:17:48;;;;;;;5.27;2.87;;;;;;;;;;5104580;28;20227;-75
2023/09/04 08:20:17;;;;;;;6.30;2.80;;;;;;;;;;5098252;28;20221;-75
2023/09/04 08:22:46;;;;;;;3.83;2.67;;;;;;;;;;5099068;28;20214;-75
2023/09/04 08:25:15;;;;;;;4.07;2.57;;;;;;;;;;5099426;28;20233;-75
2023/09/04 08:27:43;;;;;;;4.10;3.03;;;;;;;;;;5099446;28;20205;-75
2023/09/04 08:30:11;;;;;;;3.47;3.00;;;;;;;;;;5099389;28;20237;-75
2023/09/04 08:32:41;;;;;;;3.27;2.50;;;;;;;;;;5103134;28;20224;-75
2023/09/04 08:35:09;;;;;;;2.40;2.20;;;;;;;;;;5099251;28;20213;-75
2023/09/04 08:37:37;;;;;;;3.50;2.77;;;;;;;;;;5098679;28;20202;-74
2023/09/04 08:40:06;;;;;;;9.10;2.93;;;;;;;;;;5098705;28;20720;-74
2023/09/04 08:42:37;;;;;;;3.03;2.70;;;;;;;;;;5099271;28;20205;-74
2023/09/04 08:45:10;;;;;;;4.23;2.50;;;;;;;;;;5098959;28;20565;-74
2023/09/04 08:47:39;;;;;;;4.30;3.10;;;;;;;;;;5085416;28;20215;-75
2023/09/04 08:50:10;;;;;;;5.50;3.10;;;;;;;;;;5109850;28;20226;-75
2023/09/04 08:52:39;;;;;;;4.40;2.90;;;;;;;;;;5098477;28;20228;-75
2023/09/04 08:55:07;;;;;;;4.07;3.27;;;;;;;;;;5098710;28;20218;-74
2023/09/04 08:57:35;;;;;;;4.27;2.83;;;;;;;;;;5096880;28;20238;-75
2023/09/04 09:00:05;;;;;;;3.97;3.00;;;;;;;;;;5098233;28;20682;-74
2023/09/04 09:02:34;;;;;;;5.20;3.40;;;;;;;;;;5094505;28;20201;-76
2023/09/04 09:05:03;;;;;;;5.75;3.38;;;;;;;;;;5094960;28;20201;-74
2023/09/04 09:07:33;;;;;;;8.35;3.55;;;;;;;;;;5102999;28;20274;-74
2023/09/04 09:10:04;;;;;;;8.00;3.45;;;;;;;;;;5098773;28;20221;-73
2023/09/04 09:12:32;;;;;;;4.85;3.30;;;;;;;;;;5098521;28;20284;-75
2023/09/04 09:15:00;;;;;;;7.28;3.60;;;;;;;;;;5098796;28;20216;-75
2023/09/04 09:17:29;;;;;;;7.85;3.95;;;;;;;;;;5098305;28;20657;-75
2023/09/04 09:19:57;;;;;;;2.95;2.65;;;;;;;;;;5097605;28;20567;-75
2023/09/04 09:22:25;;;;;;;6.03;3.13;;;;;;;;;;5097906;28;20261;-76
2023/09/04 09:24:56;;;;;;;9.40;3.65;;;;;;;;;;5108995;28;20204;-75
2023/09/04 09:27:25;;;;;;;3.53;2.85;;;;;;;;;;5098253;28;20257;-75
2023/09/04 09:29:57;;;;;;;4.45;3.08;;;;;;;;;;5097801;28;20629;-76
2023/09/04 09:32:28;;;;;;;3.13;2.65;;;;;;;;;;5098017;28;20209;-74
2023/09/04 09:34:58;;;;;;;3.55;2.88;;;;;;;;;;5098286;28;20233;-76
2023/09/04 09:37:27;;;;;;;6.37;3.00;;;;;;;;;;5097678;28;20201;-73
2023/09/04 09:39:57;;;;;;;5.47;2.77;;;;;;;;;;5098385;28;20247;-73
2023/09/04 09:42:25;;;;;;;3.53;2.73;;;;;;;;;;5097893;28;20570;-74
2023/09/04 09:44:54;;;;;;;3.53;2.97;;;;;;;;;;5098155;28;20565;-73
2023/09/04 09:47:22;;;;;;;7.30;2.47;;;;;;;;;;5097744;28;20313;-73
2023/09/04 09:49:51;;;;;;;9.10;2.70;;;;;;;;;;5097683;28;20204;-72
2023/09/04 09:52:19;;;;;;;3.37;2.60;;;;;;;;;;5097420;28;20206;-73
2023/09/04 09:54:48;;;;;;;7.47;2.70;;;;;;;;;;5097944;28;20207;-74
2023/09/04 09:57:18;;;;;;;4.53;2.37;;;;;;;;;;5102373;28;20240;-73
2023/09/04 09:59:48;;;;;;;4.20;2.57;;;;;;;;;;5103789;28;20763;-73
2023/09/04 10:02:18;;;;;;;8.67;2.80;;;;;;;;;;5097553;28;20203;-73
2023/09/04 10:04:47;;;;;;;5.13;3.17;;;;;;;;;;5097640;28;20687;-73
2023/09/04 10:07:17;;;;;;;7.07;2.70;;;;;;;;;;5097466;28;20254;-74
2023/09/04 10:09:46;;;;;;;7.35;2.65;;;;;;;;;;5097322;28;20562;-74
2023/09/04 10:12:21;;;;;;;5.22;2.85;;;;;;;;;;5097895;28;20213;-74
2023/09/04 10:14:52;;;;;;;2.95;2.65;;;;;;;;;;5097824;28;20275;-73
2023/09/04 10:17:21;;;;;;;6.80;2.53;;;;;;;;;;5097863;28;20218;-75
2023/09/04 10:19:49;;;;;;;5.00;2.50;;;;;;;;;;5097400;28;20233;-75
2023/09/04 10:22:22;;;;;;;5.13;2.42;;;;;;;;;;5097321;28;20235;-73
2023/09/04 10:24:56;;;;;;;5.13;2.70;;;;;;;;;;5097159;28;20212;-72
2023/09/04 10:27:26;;;;;;;5.15;2.70;;;;;;;;;;5097051;28;20611;-75
2023/09/04 10:29:57;;;;;;;2.40;2.10;;;;;;;;;;5097028;28;21586;-75
2023/09/04 10:32:25;;;;;;;5.97;2.47;;;;;;;;;;5097584;28;20234;-73
2023/09/04 10:34:53;;;;;;;3.38;2.60;;;;;;;;;;5097615;28;20212;-73
2023/09/04 10:37:22;;;;;;;7.30;2.97;;;;;;;;;;5097364;28;20223;-72
2023/09/04 10:39:50;;;;;;;2.88;2.40;;;;;;;;;;5097149;28;20229;-74
2023/09/04 10:42:27;;;;;;;3.45;2.55;;;;;;;;;;5097675;28;20236;-73
2023/09/04 10:44:58;;;;;;;7.13;2.65;;;;;;;;;;5100556;28;20209;-78
2023/09/04 10:47:26;;;;;;;2.97;2.33;;;;;;;;;;5101396;28;20274;-79
2023/09/04 10:49:54;;;;;;;3.55;2.97;;;;;;;;;;5101114;28;20344;-78
2023/09/04 10:52:23;;;;;;;5.13;2.83;;;;;;;;;;5100899;28;20205;-78
2023/09/04 10:55:11;;;;;;;2.38;2.17;;;;;;;;;;5101036;28;20613;-71
2023/09/04 10:57:53;;;;;;;4.95;2.40;;;;;;;;;;5100945;28;20700;-72
2023/09/04 11:00:29;;;;;;;4.38;2.55;;;;;;;;;;5100990;28;20241;-70
2023/09/04 11:02:59;;;;;;;3.00;2.50;;;;;;;;;;5101111;28;20201;-71
2023/09/04 11:05:27;;;;;;;3.05;2.38;;;;;;;;;;5100806;28;20227;-72
2023/09/04 11:07:55;;;;;;;2.78;2.50;;;;;;;;;;5100622;28;20216;-70
2023/09/04 11:10:36;;;;;;;4.80;2.63;;;;;;;;;;5100976;28;20227;-70
2023/09/04 11:13:04;;;;;;;3.88;2.92;;;;;;;;;;5100865;28;20209;-70
2023/09/04 11:15:37;;;;;;;2.95;2.55;;;;;;;;;;5101275;28;20212;-70
2023/09/04 11:18:13;;;;;;;3.78;2.55;;;;;;;;;;5100860;28;20212;-71
2023/09/04 11:20:46;;;;;;;5.20;2.72;;;;;;;;;;5099986;28;20603;-72
2023/09/04 11:23:14;;;;;;;4.97;3.28;;;;;;;;;;5100770;28;20212;-71
2023/09/04 11:25:46;;;;;;;3.80;2.50;;;;;;;;;;5100441;28;20213;-71
2023/09/04 11:28:14;;;;;;;2.70;2.50;;;;;;;;;;5100725;28;20205;-70
2023/09/04 11:30:44;;;;;;;2.50;2.22;;;;;;;;;;5100360;28;20221;-70
2023/09/04 11:33:12;;;;;;;4.35;2.33;;;;;;;;;;5100848;28;20206;-71
2023/09/04 11:35:41;;;;;;;2.80;2.47;;;;;;;;;;5100177;28;20228;-70
2023/09/04 11:38:23;;;;;;;4.05;2.53;;;;;;;;;;5100029;28;20810;-70
2023/09/04 11:40:51;;;;;;;4.72;2.17;;;;;;;;;;5099864;28;20704;-70
2023/09/04 11:43:19;;;;;;;2.70;2.50;;;;;;;;;;5100352;28;20212;-70
2023/09/04 11:45:49;;;;;;;2.95;2.40;;;;;;;;;;5100052;28;20688;-70
2023/09/04 11:48:17;;;;;;;6.25;2.67;;;;;;;;;;5100121;28;20213;-71
2023/09/04 11:50:45;;;;;;;7.50;2.45;;;;;;;;;;5099923;28;20313;-70
2023/09/04 11:53:13;;;;;;;7.60;2.90;;;;;;;;;;5099968;28;20206;-70
2023/09/04 11:55:41;;;;;;;3.17;2.25;;;;;;;;;;5100034;28;20209;-70
2023/09/04 11:58:10;;;;;;;3.28;2.20;;;;;;;;;;5099568;28;20237;-71
2023/09/04 12:00:38;;;;;;;3.65;2.58;;;;;;;;;;5099573;28;20279;-70
2023/09/04 12:03:07;;;;;;;2.97;2.78;;;;;;;;;;5099981;28;20212;-71
2023/09/04 12:05:36;;;;;;;6.20;2.80;;;;;;;;;;5099906;28;20215;-72
2023/09/04 12:08:04;;;;;;;4.63;2.70;;;;;;;;;;5099406;28;20224;-71
2023/09/04 12:10:33;;;;;;;2.85;2.47;;;;;;;;;;5099548;28;20723;-71
2023/09/04 12:13:01;;;;;;;2.13;2.03;;;;;;;;;;5099520;28;20209;-70
2023/09/04 12:15:34;;;;;;;3.03;2.28;;;;;;;;;;5099540;28;20216;-70
2023/09/04 12:18:02;;;;;;;2.95;2.50;;;;;;;;;;5099587;28;20213;-72
2023/09/04 12:20:34;;;;;;;5.70;2.60;;;;;;;;;;5099033;28;20259;-72
2023/09/04 12:23:02;;;;;;;2.53;2.33;;;;;;;;;;5099107;28;20616;-70
2023/09/04 12:25:34;;;;;;;4.40;2.88;;;;;;;;;;5099652;28;20200;-70
2023/09/04 12:28:03;;;;;;;4.50;2.25;;;;;;;;;;5099502;28;20326;-70
2023/09/04 12:30:34;;;;;;;3.58;2.70;;;;;;;;;;5099215;28;20276;-70
2023/09/04 12:33:04;;;;;;;3.00;2.53;;;;;;;;;;5099508;28;20209;-70
2023/09/04 12:35:33;;;;;;;3.17;2.35;;;;;;;;;;5098997;28;20201;-70
2023/09/04 12:38:01;;;;;;;4.32;2.25;;;;;;;;;;5099165;28;20201;-70
2023/09/04 12:40:29;;;;;;;3.08;2.75;;;;;;;;;;5099043;28;20229;-72
2023/09/04 12:42:59;;;;;;;2.25;2.05;;;;;;;;;;5099214;28;20227;-72
2023/09/04 12:45:27;;;;;;;3.70;2.58;;;;;;;;;;5099142;28;20262;-71
2023/09/04 12:47:55;;;;;;;2.80;2.60;;;;;;;;;;5099245;28;20212;-72
2023/09/04 12:50:23;;;;;;;3.97;2.38;;;;;;;;;;5098953;28;20228;-72
2023/09/04 12:52:52;;;;;;;2.22;2.03;;;;;;;;;;5098816;28;20238;-71
2023/09/04 12:55:21;;;;;;;3.22;2.50;;;;;;;;;;5098960;28;20205;-71
2023/09/04 12:57:49;;;;;;;5.20;2.30;;;;;;;;;;5098717;28;20644;-70
2023/09/04 13:00:17;;;;;;;3.33;2.53;;;;;;;;;;5098556;28;20229;-71
2023/09/04 13:02:46;;;;;;;2.38;2.17;;;;;;;;;;5098535;28;20657;-70
2023/09/04 13:05:14;;;;;;;2.22;2.03;;;;;;;;;;5098457;28;20570;-71
2023/09/04 13:07:42;;;;;;;2.50;2.30;;;;;;;;;;5097840;28;20209;-70
2023/09/04 13:10:12;;;;;;;3.95;2.20;;;;;;;;;;5098446;28;20225;-70
2023/09/04 13:12:40;;;;;;;3.55;1.98;;;;;;;;;;5098333;28;20212;-71
2023/09/04 13:15:09;;;;;;;3.67;2.40;;;;;;;;;;5098726;28;20205;-71
2023/09/04 13:17:38;;;;;;;2.85;2.00;;;;;;;;;;5098264;28;20200;-70
2023/09/04 13:20:07;;;;;;;2.92;1.80;;;;;;;;;;5098361;28;20260;-70
2023/09/04 13:22:35;;;;;;;2.35;1.98;;;;;;;;;;5097895;28;20209;-70
2023/09/04 13:25:03;;;;;;;3.53;1.88;;;;;;;;;;5098202;28;20756;-71
2023/09/04 13:27:34;;;;;;;1.67;1.55;;;;;;;;;;5098556;28;20209;-70
2023/09/04 13:30:02;;;;;;;2.67;1.80;;;;;;;;;;5098569;28;20225;-70
2023/09/04 13:32:30;;;;;;;3.85;2.30;;;;;;;;;;5098297;28;20198;-70
2023/09/04 13:34:59;;;;;;;2.78;1.50;;;;;;;;;;5098103;28;20566;-70
2023/09/04 13:37:27;;;;;;;6.75;1.83;;;;;;;;;;5097978;28;20205;-71
2023/09/04 13:39:55;;;;;;;2.78;1.48;;;;;;;;;;5098022;28;20274;-71
2023/09/04 13:42:23;;;;;;;1.90;1.58;;;;;;;;;;5098149;28;20225;-70
2023/09/04 13:44:52;;;;;;;2.53;1.98;;;;;;;;;;5097938;28;20220;-71
2023/09/04 13:47:24;;;;;;;2.08;1.60;;;;;;;;;;5098142;28;20217;-69
2023/09/04 13:49:54;;;;;;;4.28;1.55;;;;;;;;;;5098111;28;20209;-70
2023/09/04 13:52:22;;;;;;;1.92;1.73;;;;;;;;;;5097817;28;20204;-71
2023/09/04 13:54:52;;;;;;;3.80;1.85;;;;;;;;;;5097998;28;20201;-71
2023/09/04 13:57:20;;;;;;;4.93;2.42;;;;;;;;;;5097784;28;20244;-70
2023/09/04 13:59:48;;;;;;;2.78;1.60;;;;;;;;;;5097627;28;20209;-71
2023/09/04 14:02:18;;;;;;;5.97;2.08;;;;;;;;;;5097735;28;20593;-70
2023/09/04 14:04:46;;;;;;;3.10;1.80;;;;;;;;;;5097990;28;20212;-71
2023/09/04 14:07:14;;;;;;;2.33;1.70;;;;;;;;;;5097514;28;20209;-70
2023/09/04 14:09:42;;;;;;;2.08;1.63;;;;;;;;;;5097760;28;20227;-71
2023/09/04 14:12:11;;;;;;;1.77;1.58;;;;;;;;;;5097929;28;20201;-70
2023/09/04 14:14:39;;;;;;;1.92;1.58;;;;;;;;;;5097684;28;20586;-71
2023/09/04 14:17:07;;;;;;;1.50;1.40;;;;;;;;;;5097935;28;20217;-70
2023/09/04 14:19:36;;;;;;;2.08;1.48;;;;;;;;;;5087743;28;20206;-70
2023/09/04 14:22:05;;;;;;;4.65;1.80;;;;;;;;;;5098418;28;20225;-71
2023/09/04 14:24:33;;;;;;;1.63;1.50;;;;;;;;;;5100525;28;20227;-70
2023/09/04 14:27:01;;;;;;;2.67;1.70;;;;;;;;;;5101704;28;20205;-70
2023/09/04 14:29:29;;;;;;;3.25;1.42;;;;;;;;;;5099948;28;20217;-70
2023/09/04 14:31:57;;;;;;;2.38;1.70;;;;;;;;;;5101664;28;20221;-71
2023/09/04 14:34:25;;;;;;;2.33;1.90;;;;;;;;;;5101433;28;20693;-70
2023/09/04 14:36:55;;;;;;;1.63;1.33;;;;;;;;;;5099823;28;20697;-71
2023/09/04 14:39:43;;;;;;;2.20;1.33;;;;;;;;;;5099283;28;20201;-71
2023/09/04 14:42:11;;;;;;;3.60;2.05;;;;;;;;;;5099479;28;20710;-69
2023/09/04 14:44:39;;;;;;;2.45;1.70;;;;;;;;;;5099339;28;20205;-71
2023/09/04 14:47:10;;;;;;;2.25;1.55;;;;;;;;;;5099448;28;20274;-70
2023/09/04 14:49:38;;;;;;;1.35;1.25;;;;;;;;;;5099197;28;20250;-71
2023/09/04 14:52:08;;;;;;;1.35;1.17;;;;;;;;;;5098982;28;20250;-71
2023/09/04 14:54:36;;;;;;;1.40;1.30;;;;;;;;;;5099337;28;20202;-70